Time;durP1;ratioP1;P1;durP2;ratioP2;P2;SDS_P1;SDS_P2;PMS_P1;PMS_P2;Temp;Humidity;BMP_temperature;BMP_pressure;BME280_temperature;BME280_humidity;BME280_pressure;Samples;Min_cycle;Max_cycle;Signal;HPM_P1;HPM_P2
2021/08/26 00:00:41;;;;;;;;;;;22.90;59.50;;;;;;494564;240;1057;-43
2021/08/26 00:07:18;;;;;;;;;;;22.90;59.40;;;;;;494224;241;1348;-44
2021/08/26 00:09:19;;;;;;;;;;;22.90;59.30;;;;;;494287;240;1469;-44
2021/08/26 00:11:21;;;;;;;;;;;22.90;59.30;;;;;;494074;240;1410;-43
2021/08/26 00:13:21;;;;;;;;;;;22.90;59.30;;;;;;493984;240;2311;-44
2021/08/26 00:15:23;;;;;;;;;;;23.00;59.30;;;;;;494174;240;1149;-43
2021/08/26 00:17:24;;;;;;;;;;;23.00;59.30;;;;;;494166;240;1178;-43
2021/08/26 00:19:25;;;;;;;;;;;23.00;59.30;;;;;;494235;240;1126;-43
2021/08/26 00:21:29;;;;;;;;;;;23.00;59.20;;;;;;493955;240;1124;-44
2021/08/26 00:23:29;;;;;;;;;;;23.00;59.20;;;;;;494363;241;1470;-44
2021/08/26 00:25:30;;;;;;;;;;;23.00;59.20;;;;;;494490;240;1041;-44
2021/08/26 00:27:31;;;;;;;;;;;23.00;59.20;;;;;;493963;240;1253;-44
2021/08/26 00:29:33;;;;;;;;;;;23.00;59.20;;;;;;494331;240;1051;-44
2021/08/26 00:31:34;;;;;;;;;;;23.10;59.20;;;;;;494491;240;1171;-43
2021/08/26 00:33:35;;;;;;;;;;;23.10;59.10;;;;;;494556;240;2198;-43
2021/08/26 00:35:37;;;;;;;;;;;23.10;59.10;;;;;;494072;240;1047;-43
2021/08/26 00:37:38;;;;;;;;;;;23.10;59.10;;;;;;494047;240;1143;-44
2021/08/26 00:39:39;;;;;;;;;;;23.10;59.10;;;;;;494519;240;1055;-44
2021/08/26 00:41:41;;;;;;;;;;;23.10;59.00;;;;;;494000;240;1760;-43
2021/08/26 00:43:42;;;;;;;;;;;23.10;59.10;;;;;;494277;240;1186;-44
2021/08/26 00:45:43;;;;;;;;;;;23.10;59.00;;;;;;494445;240;1119;-44
2021/08/26 00:47:45;;;;;;;;;;;23.10;59.00;;;;;;494311;240;1090;-44
2021/08/26 00:49:46;;;;;;;;;;;23.10;59.00;;;;;;494051;240;1012;-44
2021/08/26 00:51:47;;;;;;;;;;;23.10;59.00;;;;;;493965;240;2191;-44
2021/08/26 00:53:49;;;;;;;;;;;23.10;59.00;;;;;;494075;240;1042;-44
2021/08/26 00:55:50;;;;;;;;;;;23.10;59.00;;;;;;494513;240;1037;-44
2021/08/26 00:57:51;;;;;;;;;;;23.20;59.00;;;;;;494254;240;1281;-44
2021/08/26 00:59:53;;;;;;;;;;;23.20;59.00;;;;;;494102;240;1151;-44
2021/08/26 01:01:54;;;;;;;;;;;23.20;58.90;;;;;;494245;240;1233;-43
2021/08/26 01:03:57;;;;;;;;;;;23.20;58.90;;;;;;494563;240;1037;-44
2021/08/26 01:05:58;;;;;;;;;;;23.20;58.90;;;;;;494453;240;1129;-44
2021/08/26 01:07:59;;;;;;;;;;;23.20;58.90;;;;;;494012;240;1171;-44
2021/08/26 01:10:01;;;;;;;;;;;23.20;58.90;;;;;;494556;240;1050;-44
2021/08/26 01:12:02;;;;;;;;;;;23.20;58.90;;;;;;493928;240;2132;-43
2021/08/26 01:14:03;;;;;;;;;;;23.20;58.80;;;;;;494124;240;1556;-43
2021/08/26 01:16:05;;;;;;;;;;;23.20;58.90;;;;;;494275;240;1248;-44
2021/08/26 01:18:06;;;;;;;;;;;23.30;58.90;;;;;;494473;240;1320;-44
2021/08/26 01:20:07;;;;;;;;;;;23.30;58.90;;;;;;494248;240;1029;-44
2021/08/26 01:22:08;;;;;;;;;;;23.30;58.90;;;;;;494436;240;1310;-44
2021/08/26 01:24:10;;;;;;;;;;;23.30;58.90;;;;;;494159;240;1225;-44
2021/08/26 01:26:11;;;;;;;;;;;23.30;58.90;;;;;;494321;240;1416;-43
2021/08/26 01:28:12;;;;;;;;;;;23.30;58.80;;;;;;494084;240;1203;-44
2021/08/26 01:30:14;;;;;;;;;;;23.30;58.80;;;;;;494133;240;1165;-44
2021/08/26 01:32:15;;;;;;;;;;;23.30;58.80;;;;;;494162;240;2139;-44
2021/08/26 01:34:16;;;;;;;;;;;23.30;58.80;;;;;;494430;240;1060;-43
2021/08/26 01:36:18;;;;;;;;;;;23.30;58.80;;;;;;494034;240;1429;-44
2021/08/26 01:38:19;;;;;;;;;;;23.30;58.70;;;;;;494110;240;1053;-43
2021/08/26 01:40:20;;;;;;;;;;;23.40;58.70;;;;;;494451;240;1091;-44
2021/08/26 01:42:22;;;;;;;;;;;23.40;58.80;;;;;;494151;240;1181;-44
2021/08/26 01:44:23;;;;;;;;;;;23.40;58.80;;;;;;494380;240;1122;-44
2021/08/26 01:46:24;;;;;;;;;;;23.40;58.80;;;;;;494500;240;1176;-43
2021/08/26 01:48:26;;;;;;;;;;;23.40;58.70;;;;;;494527;240;1037;-44
2021/08/26 01:50:28;;;;;;;;;;;23.30;58.70;;;;;;494526;240;1216;-44
2021/08/26 01:52:29;;;;;;;;;;;23.40;59.80;;;;;;493972;240;2887;-44
2021/08/26 01:54:30;;;;;;;;;;;23.30;59.80;;;;;;494137;240;1042;-44
2021/08/26 01:56:32;;;;;;;;;;;23.10;60.40;;;;;;494339;240;1558;-43
2021/08/26 01:58:33;;;;;;;;;;;22.90;60.90;;;;;;494088;240;1088;-43
2021/08/26 02:00:34;;;;;;;;;;;22.70;61.60;;;;;;494048;240;1307;-44
2021/08/26 02:02:36;;;;;;;;;;;22.60;62.20;;;;;;494119;240;1202;-43
2021/08/26 02:04:37;;;;;;;;;;;22.40;62.50;;;;;;494417;240;1066;-43
2021/08/26 02:06:38;;;;;;;;;;;22.30;62.90;;;;;;494495;240;1215;-43
2021/08/26 02:08:39;;;;;;;;;;;22.10;63.20;;;;;;494130;240;1049;-43
2021/08/26 02:10:41;;;;;;;;;;;22.10;63.40;;;;;;494025;240;1122;-43
2021/08/26 02:12:42;;;;;;;;;;;22.00;63.60;;;;;;494444;240;2135;-43
2021/08/26 02:14:44;;;;;;;;;;;22.00;63.80;;;;;;494234;240;1194;-43
2021/08/26 02:16:45;;;;;;;;;;;21.90;64.00;;;;;;494194;240;1531;-43
2021/08/26 02:18:46;;;;;;;;;;;21.80;64.20;;;;;;494568;240;1146;-43
2021/08/26 02:20:48;;;;;;;;;;;21.80;64.20;;;;;;494093;240;1065;-43
2021/08/26 02:22:49;;;;;;;;;;;21.70;64.30;;;;;;494036;240;1369;-43
2021/08/26 02:24:50;;;;;;;;;;;21.70;64.40;;;;;;494221;240;1104;-43
2021/08/26 02:26:52;;;;;;;;;;;21.60;64.60;;;;;;494204;240;1587;-43
2021/08/26 02:28:53;;;;;;;;;;;21.60;64.50;;;;;;494562;240;1572;-43
2021/08/26 02:30:54;;;;;;;;;;;21.60;64.50;;;;;;494063;240;1226;-43
2021/08/26 02:32:56;;;;;;;;;;;21.60;64.60;;;;;;493997;240;2190;-43
2021/08/26 02:34:57;;;;;;;;;;;21.50;64.70;;;;;;494111;240;1242;-43
2021/08/26 02:36:59;;;;;;;;;;;21.50;64.70;;;;;;494179;240;1386;-43
2021/08/26 02:39:00;;;;;;;;;;;21.50;64.80;;;;;;494571;240;1006;-43
2021/08/26 02:41:01;;;;;;;;;;;21.50;64.80;;;;;;494306;240;1358;-43
2021/08/26 02:43:02;;;;;;;;;;;21.40;64.70;;;;;;494093;240;1167;-43
2021/08/26 02:45:04;;;;;;;;;;;21.40;64.80;;;;;;494370;240;1186;-43
2021/08/26 02:47:05;;;;;;;;;;;21.40;64.90;;;;;;494422;240;1576;-43
2021/08/26 02:49:06;;;;;;;;;;;21.40;64.90;;;;;;494065;240;1100;-43
2021/08/26 02:51:08;;;;;;;;;;;21.30;65.00;;;;;;494367;240;1144;-43
2021/08/26 02:53:09;;;;;;;;;;;21.30;65.10;;;;;;494068;240;2131;-43
2021/08/26 02:55:10;;;;;;;;;;;21.30;65.20;;;;;;494552;240;1057;-43
2021/08/26 02:57:12;;;;;;;;;;;21.30;65.10;;;;;;494151;240;1170;-43
2021/08/26 02:59:13;;;;;;;;;;;21.30;65.10;;;;;;494516;240;1049;-43
2021/08/26 03:01:14;;;;;;;;;;;21.20;65.10;;;;;;494029;240;1269;-43
2021/08/26 03:03:16;;;;;;;;;;;21.20;65.10;;;;;;494021;240;1177;-43
2021/08/26 03:05:17;;;;;;;;;;;21.20;65.10;;;;;;494075;240;1104;-43
2021/08/26 03:07:19;;;;;;;;;;;21.20;65.20;;;;;;494212;240;1280;-43
2021/08/26 03:09:20;;;;;;;;;;;21.20;65.20;;;;;;494279;240;1112;-43
2021/08/26 03:11:21;;;;;;;;;;;21.20;65.20;;;;;;494333;240;1197;-43
2021/08/26 03:13:23;;;;;;;;;;;21.10;65.30;;;;;;494235;240;2222;-43
2021/08/26 03:15:24;;;;;;;;;;;21.10;65.30;;;;;;494257;240;1153;-43
2021/08/26 03:17:25;;;;;;;;;;;21.10;65.40;;;;;;494024;240;1211;-43
2021/08/26 03:19:27;;;;;;;;;;;21.10;65.40;;;;;;494232;240;1059;-43
2021/08/26 03:21:28;;;;;;;;;;;21.10;65.40;;;;;;494357;240;1060;-43
2021/08/26 03:23:29;;;;;;;;;;;21.10;65.40;;;;;;494429;240;1077;-43
2021/08/26 03:25:31;;;;;;;;;;;21.10;65.40;;;;;;494093;240;1033;-43
2021/08/26 03:27:32;;;;;;;;;;;21.10;65.40;;;;;;494168;240;1094;-43
2021/08/26 03:29:33;;;;;;;;;;;21.00;65.50;;;;;;494133;240;1065;-43
2021/08/26 03:31:35;;;;;;;;;;;21.00;65.50;;;;;;494014;240;1171;-43
2021/08/26 03:33:36;;;;;;;;;;;21.00;65.60;;;;;;494098;240;2194;-43
2021/08/26 03:35:37;;;;;;;;;;;21.00;65.50;;;;;;494554;240;1009;-43
2021/08/26 03:37:39;;;;;;;;;;;21.00;65.40;;;;;;494511;240;1171;-43
2021/08/26 03:39:40;;;;;;;;;;;21.00;65.40;;;;;;494420;240;1038;-43
2021/08/26 03:41:41;;;;;;;;;;;21.00;65.50;;;;;;494031;240;1175;-43
2021/08/26 03:43:43;;;;;;;;;;;20.90;65.60;;;;;;494066;240;1038;-43
2021/08/26 03:45:44;;;;;;;;;;;20.90;65.50;;;;;;494332;237;1328;-43
2021/08/26 03:47:45;;;;;;;;;;;20.90;65.60;;;;;;494507;240;1191;-43
2021/08/26 03:49:47;;;;;;;;;;;20.90;65.70;;;;;;494057;240;1067;-43
2021/08/26 03:51:48;;;;;;;;;;;20.90;65.50;;;;;;494405;240;1215;-43
2021/08/26 03:53:50;;;;;;;;;;;20.90;65.80;;;;;;494401;240;2147;-43
2021/08/26 03:55:51;;;;;;;;;;;20.90;65.70;;;;;;494513;240;1422;-43
2021/08/26 03:57:52;;;;;;;;;;;20.90;65.70;;;;;;494528;240;1132;-43
2021/08/26 03:59:54;;;;;;;;;;;20.90;65.70;;;;;;494400;240;1075;-43
2021/08/26 04:01:55;;;;;;;;;;;20.80;65.70;;;;;;493955;240;1311;-43
2021/08/26 04:03:56;;;;;;;;;;;20.90;65.80;;;;;;494473;240;1244;-43
2021/08/26 04:05:57;;;;;;;;;;;20.90;65.80;;;;;;494077;240;1031;-43
2021/08/26 04:07:59;;;;;;;;;;;20.80;65.80;;;;;;494052;240;1242;-43
2021/08/26 04:10:00;;;;;;;;;;;20.80;65.80;;;;;;494499;240;1016;-43
2021/08/26 04:12:01;;;;;;;;;;;20.80;65.70;;;;;;494168;240;1173;-43
2021/08/26 04:14:03;;;;;;;;;;;20.80;65.80;;;;;;493995;240;2178;-43
2021/08/26 04:16:04;;;;;;;;;;;20.90;65.80;;;;;;493976;240;1177;-43
2021/08/26 04:18:05;;;;;;;;;;;20.90;65.80;;;;;;494127;240;1269;-43
2021/08/26 04:20:07;;;;;;;;;;;20.90;65.70;;;;;;494383;240;1099;-43
2021/08/26 04:22:08;;;;;;;;;;;20.80;65.70;;;;;;493882;240;1353;-43
2021/08/26 04:24:09;;;;;;;;;;;20.80;65.70;;;;;;494421;240;1078;-43
2021/08/26 04:26:11;;;;;;;;;;;20.80;65.80;;;;;;493956;240;1298;-43
2021/08/26 04:28:12;;;;;;;;;;;20.70;65.90;;;;;;494007;240;1172;-43
2021/08/26 04:30:13;;;;;;;;;;;20.70;65.90;;;;;;494292;240;1086;-43
2021/08/26 04:32:15;;;;;;;;;;;20.80;65.90;;;;;;493989;240;1367;-43
2021/08/26 04:34:16;;;;;;;;;;;20.80;65.80;;;;;;493973;240;2198;-43
2021/08/26 04:36:17;;;;;;;;;;;20.80;65.70;;;;;;494075;240;1310;-43
2021/08/26 04:38:19;;;;;;;;;;;20.80;65.80;;;;;;494062;240;1261;-43
2021/08/26 04:40:20;;;;;;;;;;;20.80;65.80;;;;;;493881;240;1086;-43
2021/08/26 04:42:21;;;;;;;;;;;20.70;65.90;;;;;;494029;240;1215;-43
2021/08/26 04:44:23;;;;;;;;;;;20.70;65.90;;;;;;494004;240;1327;-43
2021/08/26 04:46:24;;;;;;;;;;;20.70;66.00;;;;;;494127;237;1285;-43
2021/08/26 04:48:25;;;;;;;;;;;20.70;66.00;;;;;;493897;240;1108;-43
2021/08/26 04:50:27;;;;;;;;;;;20.70;65.90;;;;;;493836;240;1074;-43
2021/08/26 04:52:28;;;;;;;;;;;20.70;65.80;;;;;;493814;240;1204;-43
2021/08/26 04:54:29;;;;;;;;;;;20.70;65.80;;;;;;493764;240;2178;-43
2021/08/26 04:56:30;;;;;;;;;;;20.70;65.80;;;;;;493808;240;1224;-43
2021/08/26 04:58:32;;;;;;;;;;;20.70;65.70;;;;;;493841;240;1174;-43
2021/08/26 05:00:33;;;;;;;;;;;20.70;65.80;;;;;;494191;240;1045;-43
2021/08/26 05:02:35;;;;;;;;;;;20.70;65.90;;;;;;493674;240;1210;-43
2021/08/26 05:04:36;;;;;;;;;;;20.70;65.90;;;;;;493952;240;1081;-43
2021/08/26 05:06:37;;;;;;;;;;;20.70;65.90;;;;;;493961;240;1063;-43
2021/08/26 05:08:39;;;;;;;;;;;20.70;65.90;;;;;;493974;240;1239;-43
2021/08/26 05:10:40;;;;;;;;;;;20.70;65.90;;;;;;494009;240;1082;-43
2021/08/26 05:12:41;;;;;;;;;;;20.60;66.00;;;;;;493665;240;1150;-43
2021/08/26 05:14:43;;;;;;;;;;;20.70;66.00;;;;;;493970;240;2186;-43
2021/08/26 05:16:44;;;;;;;;;;;20.70;65.90;;;;;;493748;240;1678;-43
2021/08/26 05:18:45;;;;;;;;;;;20.60;66.00;;;;;;493808;240;1044;-43
2021/08/26 05:20:47;;;;;;;;;;;20.60;65.90;;;;;;493755;240;1347;-43
2021/08/26 05:22:48;;;;;;;;;;;20.70;65.90;;;;;;493778;240;1107;-43
2021/08/26 05:24:51;;;;;;;;;;;20.70;65.80;;;;;;493868;240;1272;-43
2021/08/26 05:26:52;;;;;;;;;;;20.90;65.30;;;;;;493538;240;1763;-43
2021/08/26 05:28:52;;;;;;;;;;;21.10;64.70;;;;;;493654;241;2187;-43
2021/08/26 05:30:53;;;;;;;;;;;21.20;64.20;;;;;;493902;240;1414;-44
2021/08/26 05:32:57;;;;;;;;;;;21.30;63.60;;;;;;493367;240;1314;-43
2021/08/26 05:34:57;;;;;;;;;;;21.40;63.30;;;;;;493764;241;2184;-43
2021/08/26 05:36:58;;;;;;;;;;;21.50;63.00;;;;;;493654;240;1209;-44
2021/08/26 05:39:00;;;;;;;;;;;21.60;62.70;;;;;;493756;240;1183;-44
2021/08/26 05:41:01;;;;;;;;;;;21.60;62.40;;;;;;493651;240;1240;-44
2021/08/26 05:43:02;;;;;;;;;;;21.70;62.20;;;;;;493697;240;1233;-43
2021/08/26 05:45:03;;;;;;;;;;;21.80;62.00;;;;;;493676;240;1043;-43
2021/08/26 05:47:05;;;;;;;;;;;21.80;61.80;;;;;;493530;240;1442;-44
2021/08/26 05:49:06;;;;;;;;;;;21.90;61.70;;;;;;493897;240;1466;-44
2021/08/26 05:51:07;;;;;;;;;;;22.00;61.60;;;;;;493514;240;1346;-43
2021/08/26 05:53:09;;;;;;;;;;;22.00;61.30;;;;;;493621;240;1174;-43
2021/08/26 05:55:10;;;;;;;;;;;22.10;61.30;;;;;;493644;240;2206;-44
2021/08/26 05:57:11;;;;;;;;;;;22.10;61.10;;;;;;493693;240;1419;-44
2021/08/26 05:59:13;;;;;;;;;;;22.10;60.90;;;;;;493731;240;1292;-43
2021/08/26 06:01:14;;;;;;;;;;;22.10;60.90;;;;;;493698;240;1308;-43
2021/08/26 06:03:16;;;;;;;;;;;22.20;60.70;;;;;;493735;240;1408;-43
2021/08/26 06:05:17;;;;;;;;;;;22.20;60.60;;;;;;493707;240;1115;-44
2021/08/26 06:07:18;;;;;;;;;;;22.30;60.60;;;;;;493526;240;1163;-44
2021/08/26 06:09:21;;;;;;;;;;;22.30;60.50;;;;;;493550;240;1097;-43
2021/08/26 06:11:23;;;;;;;;;;;22.30;60.30;;;;;;493594;240;1251;-43
2021/08/26 06:13:24;;;;;;;;;;;22.40;60.30;;;;;;493583;240;1248;-44
2021/08/26 06:15:25;;;;;;;;;;;22.40;60.20;;;;;;493691;240;2206;-44
2021/08/26 06:17:26;;;;;;;;;;;22.40;60.10;;;;;;493588;240;1140;-44
2021/08/26 06:19:28;;;;;;;;;;;22.50;60.10;;;;;;493743;240;911;-44
2021/08/26 06:21:29;;;;;;;;;;;22.50;60.00;;;;;;493624;240;1273;-44
2021/08/26 06:23:30;;;;;;;;;;;22.50;59.90;;;;;;494148;240;2244;-43
2021/08/26 06:25:32;;;;;;;;;;;22.60;59.90;;;;;;494056;240;1185;-44
2021/08/26 06:27:33;;;;;;;;;;;22.60;59.90;;;;;;493977;240;1190;-44
2021/08/26 06:29:34;;;;;;;;;;;22.60;59.80;;;;;;494030;240;831;-44
2021/08/26 06:31:36;;;;;;;;;;;22.60;59.80;;;;;;493991;240;1119;-44
2021/08/26 06:33:37;;;;;;;;;;;22.60;59.70;;;;;;493617;240;1115;-44
2021/08/26 06:35:39;;;;;;;;;;;22.60;59.70;;;;;;493529;240;2202;-44
2021/08/26 06:37:40;;;;;;;;;;;22.70;59.70;;;;;;493522;240;1002;-43
2021/08/26 06:39:41;;;;;;;;;;;22.70;59.60;;;;;;493607;240;818;-44
2021/08/26 06:41:43;;;;;;;;;;;22.70;59.60;;;;;;493580;240;1185;-43
2021/08/26 06:43:44;;;;;;;;;;;22.70;59.50;;;;;;493556;241;2304;-44
2021/08/26 06:45:45;;;;;;;;;;;22.70;59.50;;;;;;494054;240;1284;-43
2021/08/26 06:47:47;;;;;;;;;;;22.70;59.40;;;;;;493854;240;1053;-44
2021/08/26 06:49:48;;;;;;;;;;;22.80;59.40;;;;;;493991;240;825;-44
2021/08/26 06:51:49;;;;;;;;;;;22.80;59.40;;;;;;493971;240;1133;-44
2021/08/26 06:53:51;;;;;;;;;;;22.80;59.30;;;;;;493989;240;791;-44
2021/08/26 06:55:52;;;;;;;;;;;22.80;59.30;;;;;;493576;240;2186;-44
2021/08/26 06:57:53;;;;;;;;;;;22.80;59.30;;;;;;493596;240;1317;-44
2021/08/26 06:59:54;;;;;;;;;;;22.80;59.30;;;;;;494115;240;1374;-43
2021/08/26 07:01:56;;;;;;;;;;;22.90;59.30;;;;;;494013;239;1165;-44
2021/08/26 07:03:57;;;;;;;;;;;22.90;59.30;;;;;;493596;240;1120;-44
2021/08/26 07:05:58;;;;;;;;;;;22.90;59.20;;;;;;493470;240;1067;-44
2021/08/26 07:08:00;;;;;;;;;;;22.90;59.20;;;;;;493536;240;1209;-44
2021/08/26 07:10:02;;;;;;;;;;;22.90;59.10;;;;;;493521;240;876;-44
2021/08/26 07:12:02;;;;;;;;;;;22.90;59.20;;;;;;493308;241;1207;-44
2021/08/26 07:14:04;;;;;;;;;;;22.90;59.10;;;;;;494039;240;2179;-44
2021/08/26 07:16:05;;;;;;;;;;;23.00;59.20;;;;;;493962;240;1234;-43
2021/08/26 07:18:07;;;;;;;;;;;23.00;59.20;;;;;;493384;240;1077;-44
2021/08/26 07:20:09;;;;;;;;;;;23.00;59.10;;;;;;493426;240;883;-43
2021/08/26 07:22:09;;;;;;;;;;;23.00;59.00;;;;;;493236;240;2117;-43
2021/08/26 07:24:10;;;;;;;;;;;23.00;59.10;;;;;;493425;240;882;-43
2021/08/26 07:26:12;;;;;;;;;;;23.00;59.00;;;;;;493425;240;1180;-44
2021/08/26 07:28:13;;;;;;;;;;;23.00;59.00;;;;;;493660;240;1018;-44
2021/08/26 07:30:14;;;;;;;;;;;23.00;58.90;;;;;;493892;240;1158;-44
2021/08/26 07:32:16;;;;;;;;;;;23.10;59.00;;;;;;493889;240;1257;-44
2021/08/26 07:34:17;;;;;;;;;;;23.00;58.90;;;;;;493493;240;2187;-44
2021/08/26 07:36:18;;;;;;;;;;;23.10;59.00;;;;;;493667;240;1107;-43
2021/08/26 07:38:19;;;;;;;;;;;23.10;58.90;;;;;;493848;240;1123;-43
2021/08/26 07:40:21;;;;;;;;;;;23.10;58.90;;;;;;493922;240;957;-43
2021/08/26 07:42:22;;;;;;;;;;;23.10;58.90;;;;;;493855;240;1117;-44
2021/08/26 07:44:23;;;;;;;;;;;23.10;58.90;;;;;;493460;240;867;-44
2021/08/26 07:46:25;;;;;;;;;;;23.10;58.90;;;;;;493766;240;1274;-44
2021/08/26 07:48:26;;;;;;;;;;;23.10;58.90;;;;;;493424;240;1028;-44
2021/08/26 07:50:27;;;;;;;;;;;23.10;58.90;;;;;;493941;240;851;-43
2021/08/26 07:52:29;;;;;;;;;;;23.10;58.80;;;;;;493455;240;1053;-44
2021/08/26 07:54:30;;;;;;;;;;;23.20;58.90;;;;;;493478;240;2203;-44
2021/08/26 07:56:31;;;;;;;;;;;23.20;58.80;;;;;;493943;240;1109;-44
2021/08/26 07:58:33;;;;;;;;;;;23.20;58.80;;;;;;493530;240;940;-44
2021/08/26 08:00:34;;;;;;;;;;;23.20;58.80;;;;;;493378;240;1051;-44
2021/08/26 08:02:35;;;;;;;;;;;23.20;58.80;;;;;;493383;240;1348;-44
2021/08/26 08:04:37;;;;;;;;;;;23.20;58.80;;;;;;493154;240;1127;-44
2021/08/26 08:06:38;;;;;;;;;;;23.20;58.80;;;;;;493784;240;1052;-44
2021/08/26 08:08:39;;;;;;;;;;;23.20;58.80;;;;;;493476;240;1132;-43
2021/08/26 08:10:41;;;;;;;;;;;23.20;58.80;;;;;;493348;240;1228;-44
2021/08/26 08:12:42;;;;;;;;;;;23.20;58.80;;;;;;493210;240;1046;-44
2021/08/26 08:14:43;;;;;;;;;;;23.20;58.70;;;;;;493300;240;2194;-44
2021/08/26 08:16:45;;;;;;;;;;;23.20;58.70;;;;;;493663;240;1242;-44
2021/08/26 08:18:46;;;;;;;;;;;23.30;58.70;;;;;;493572;240;1067;-44
2021/08/26 08:20:47;;;;;;;;;;;23.30;58.70;;;;;;493885;240;1253;-44
2021/08/26 08:22:49;;;;;;;;;;;23.30;58.70;;;;;;493875;240;1314;-44
2021/08/26 08:24:50;;;;;;;;;;;23.30;58.70;;;;;;493859;240;1015;-44
2021/08/26 08:26:51;;;;;;;;;;;23.30;58.70;;;;;;493390;240;1161;-44
2021/08/26 08:28:53;;;;;;;;;;;23.30;58.70;;;;;;493774;240;838;-43
2021/08/26 08:30:54;;;;;;;;;;;23.30;58.70;;;;;;493844;240;831;-44
2021/08/26 08:32:55;;;;;;;;;;;23.30;58.70;;;;;;493846;240;1015;-44
2021/08/26 08:34:57;;;;;;;;;;;23.30;58.60;;;;;;493461;241;2182;-44
2021/08/26 08:36:58;;;;;;;;;;;23.30;58.70;;;;;;493396;240;1103;-44
2021/08/26 08:38:59;;;;;;;;;;;23.30;58.70;;;;;;493428;240;1025;-43
2021/08/26 08:41:00;;;;;;;;;;;23.30;58.70;;;;;;493443;240;1173;-44
2021/08/26 08:43:02;;;;;;;;;;;23.30;58.60;;;;;;493436;240;1003;-44
2021/08/26 08:45:03;;;;;;;;;;;23.30;58.60;;;;;;493868;240;893;-44
2021/08/26 08:47:04;;;;;;;;;;;23.30;58.60;;;;;;493300;240;1100;-44
2021/08/26 08:49:06;;;;;;;;;;;23.40;58.60;;;;;;493575;240;1489;-44
2021/08/26 08:51:07;;;;;;;;;;;23.40;58.60;;;;;;493872;240;1267;-44
2021/08/26 08:53:08;;;;;;;;;;;23.40;58.70;;;;;;493719;240;1037;-44
2021/08/26 08:55:10;;;;;;;;;;;23.40;58.60;;;;;;493852;240;2178;-44
2021/08/26 08:57:11;;;;;;;;;;;23.40;58.60;;;;;;493309;240;1249;-43
2021/08/26 08:59:12;;;;;;;;;;;23.40;58.60;;;;;;493827;240;1023;-43
2021/08/26 09:01:14;;;;;;;;;;;23.40;58.60;;;;;;493760;240;1506;-44
2021/08/26 09:03:15;;;;;;;;;;;23.40;58.60;;;;;;493274;240;1143;-44
2021/08/26 09:05:17;;;;;;;;;;;23.40;58.50;;;;;;493347;240;1144;-44
2021/08/26 09:07:18;;;;;;;;;;;23.40;58.50;;;;;;493229;240;1144;-43
2021/08/26 09:09:20;;;;;;;;;;;23.40;58.50;;;;;;493902;240;859;-44
2021/08/26 09:11:20;;;;;;;;;;;23.40;59.50;;;;;;493191;240;1888;-43
2021/08/26 09:13:22;;;;;;;;;;;23.40;59.60;;;;;;493771;240;991;-44
2021/08/26 09:15:26;;;;;;;;;;;23.20;59.80;;;;;;493401;240;2179;-43
2021/08/26 09:17:24;;;;;;;;;;;23.00;60.60;;;;;;493578;241;2120;-44
2021/08/26 09:19:29;;;;;;;;;;;22.80;61.10;;;;;;492909;240;1249;-43
2021/08/26 09:21:29;;;;;;;;;;;22.60;61.70;;;;;;492744;241;2010;-43
2021/08/26 09:23:30;;;;;;;;;;;22.50;62.10;;;;;;493925;240;1054;-43
2021/08/26 09:25:31;;;;;;;;;;;22.40;62.40;;;;;;493936;240;1201;-43
2021/08/26 09:27:33;;;;;;;;;;;22.30;62.70;;;;;;493858;240;1097;-43
2021/08/26 09:29:34;;;;;;;;;;;22.20;62.90;;;;;;493938;240;867;-43
2021/08/26 09:31:35;;;;;;;;;;;22.10;63.10;;;;;;493188;240;1130;-44
2021/08/26 09:33:36;;;;;;;;;;;22.10;63.40;;;;;;493774;240;992;-43
2021/08/26 09:35:38;;;;;;;;;;;22.00;63.50;;;;;;493343;240;2194;-43
2021/08/26 09:37:39;;;;;;;;;;;21.90;63.60;;;;;;493773;240;1076;-43
2021/08/26 09:39:40;;;;;;;;;;;21.90;63.80;;;;;;493384;240;867;-43
2021/08/26 09:41:42;;;;;;;;;;;21.90;63.80;;;;;;493340;240;1228;-43
2021/08/26 09:43:43;;;;;;;;;;;21.80;63.90;;;;;;493308;240;1110;-43
2021/08/26 09:45:45;;;;;;;;;;;21.70;64.00;;;;;;493319;240;1200;-43
2021/08/26 09:47:46;;;;;;;;;;;21.70;64.20;;;;;;493638;240;1309;-43
2021/08/26 09:49:47;;;;;;;;;;;21.60;64.20;;;;;;493506;240;1313;-43
2021/08/26 09:51:48;;;;;;;;;;;21.60;64.40;;;;;;493245;240;1167;-43
2021/08/26 09:53:50;;;;;;;;;;;21.50;64.40;;;;;;493186;240;1161;-43
2021/08/26 09:55:51;;;;;;;;;;;21.50;64.50;;;;;;493805;240;2182;-43
2021/08/26 09:57:52;;;;;;;;;;;21.50;64.70;;;;;;493462;240;1083;-43
2021/08/26 09:59:54;;;;;;;;;;;21.50;64.70;;;;;;493905;240;1038;-43
2021/08/26 10:01:55;;;;;;;;;;;21.50;64.80;;;;;;493382;240;1158;-44
2021/08/26 10:03:56;;;;;;;;;;;21.40;64.80;;;;;;493841;240;996;-43
2021/08/26 10:05:57;;;;;;;;;;;21.40;64.80;;;;;;493371;240;1187;-43
2021/08/26 10:07:59;;;;;;;;;;;21.40;64.80;;;;;;493840;240;1097;-43
2021/08/26 10:10:00;;;;;;;;;;;21.40;64.80;;;;;;493408;240;803;-43
2021/08/26 10:12:01;;;;;;;;;;;21.40;64.80;;;;;;493440;240;1082;-43
2021/08/26 10:14:03;;;;;;;;;;;21.40;64.80;;;;;;493492;240;1331;-43
2021/08/26 10:16:04;;;;;;;;;;;21.30;64.80;;;;;;493735;240;2179;-43
2021/08/26 10:18:05;;;;;;;;;;;21.30;64.90;;;;;;493133;240;1018;-43
2021/08/26 10:20:07;;;;;;;;;;;21.20;65.00;;;;;;493254;240;1177;-43
2021/08/26 10:22:08;;;;;;;;;;;21.20;65.20;;;;;;493071;240;1200;-44
2021/08/26 10:24:09;;;;;;;;;;;21.20;65.10;;;;;;493773;240;1134;-43
2021/08/26 10:26:11;;;;;;;;;;;21.20;65.00;;;;;;493158;240;1096;-43
2021/08/26 10:28:12;;;;;;;;;;;21.20;65.20;;;;;;493257;240;972;-43
2021/08/26 10:30:13;;;;;;;;;;;21.20;65.10;;;;;;493661;240;924;-43
2021/08/26 10:32:15;;;;;;;;;;;21.20;65.10;;;;;;493029;240;1071;-43
2021/08/26 10:34:20;;;;;;;;;;;21.20;65.20;;;;;;493780;240;1071;-43
2021/08/26 10:36:21;;;;;;;;;;;21.10;65.10;;;;;;493308;240;2191;-43
2021/08/26 10:38:22;;;;;;;;;;;21.10;65.20;;;;;;493835;240;1171;-43
2021/08/26 10:40:24;;;;;;;;;;;21.10;65.30;;;;;;493398;240;837;-43
2021/08/26 10:42:28;;;;;;;;;;;21.00;65.40;;;;;;493204;240;1238;-43
2021/08/26 10:44:27;;;;;;;;;;;21.00;65.30;;;;;;493266;241;2152;-44
2021/08/26 10:46:28;;;;;;;;;;;21.10;65.20;;;;;;493838;240;1247;-43
2021/08/26 10:48:29;;;;;;;;;;;21.10;65.20;;;;;;493418;240;990;-43
2021/08/26 10:50:33;;;;;;;;;;;21.10;65.30;;;;;;493699;240;1037;-43
2021/08/26 10:52:32;;;;;;;;;;;21.00;65.30;;;;;;493878;241;1291;-43
2021/08/26 10:54:34;;;;;;;;;;;21.00;65.30;;;;;;493955;240;874;-43
2021/08/26 10:56:35;;;;;;;;;;;21.00;65.40;;;;;;493436;240;2195;-43
2021/08/26 10:58:36;;;;;;;;;;;21.00;65.50;;;;;;493900;240;1370;-43
2021/08/26 11:00:38;;;;;;;;;;;21.00;65.40;;;;;;493839;240;880;-43
2021/08/26 11:02:39;;;;;;;;;;;21.00;65.40;;;;;;493290;240;1312;-43
2021/08/26 11:04:41;;;;;;;;;;;21.00;65.30;;;;;;493334;240;881;-43
2021/08/26 11:06:42;;;;;;;;;;;21.00;65.40;;;;;;493360;240;1146;-43
2021/08/26 11:08:45;;;;;;;;;;;20.90;65.20;;;;;;493436;240;911;-43
2021/08/26 11:10:45;;;;;;;;;;;20.90;65.00;;;;;;493907;241;2157;-43
2021/08/26 11:12:46;;;;;;;;;;;20.90;65.20;;;;;;493914;240;1113;-43
2021/08/26 11:14:48;;;;;;;;;;;20.90;65.60;;;;;;493206;240;1268;-43
2021/08/26 11:16:49;;;;;;;;;;;20.90;65.60;;;;;;493787;240;2187;-43
2021/08/26 11:18:50;;;;;;;;;;;20.90;65.60;;;;;;493902;240;857;-43
2021/08/26 11:20:51;;;;;;;;;;;20.90;65.60;;;;;;493773;240;1198;-43
2021/08/26 11:22:53;;;;;;;;;;;20.90;65.50;;;;;;493438;240;1031;-43
2021/08/26 11:24:54;;;;;;;;;;;20.90;65.40;;;;;;493946;240;861;-43
2021/08/26 11:26:55;;;;;;;;;;;20.90;65.40;;;;;;493728;240;1193;-43
2021/08/26 11:28:57;;;;;;;;;;;20.90;65.40;;;;;;493684;240;849;-43
2021/08/26 11:30:58;;;;;;;;;;;20.90;65.60;;;;;;493289;240;1260;-43
2021/08/26 11:32:59;;;;;;;;;;;20.90;65.50;;;;;;493143;240;897;-43
2021/08/26 11:35:01;;;;;;;;;;;20.90;65.50;;;;;;493762;240;869;-43
2021/08/26 11:37:03;;;;;;;;;;;20.90;65.70;;;;;;493337;240;2194;-43
2021/08/26 11:39:03;;;;;;;;;;;20.90;65.80;;;;;;493304;240;2082;-43
2021/08/26 11:41:05;;;;;;;;;;;20.90;65.70;;;;;;493307;240;1363;-44
2021/08/26 11:43:06;;;;;;;;;;;20.90;65.80;;;;;;493838;240;1194;-43
2021/08/26 11:45:07;;;;;;;;;;;20.80;65.80;;;;;;493830;240;1075;-43
2021/08/26 11:47:08;;;;;;;;;;;20.90;66.00;;;;;;493301;240;1185;-43
2021/08/26 11:49:10;;;;;;;;;;;20.80;66.00;;;;;;493718;240;1074;-43
2021/08/26 11:51:11;;;;;;;;;;;20.90;66.00;;;;;;493399;240;1198;-43
2021/08/26 11:53:12;;;;;;;;;;;20.80;66.00;;;;;;493744;240;960;-43
2021/08/26 11:55:14;;;;;;;;;;;20.90;65.90;;;;;;493282;240;822;-43
2021/08/26 11:57:15;;;;;;;;;;;20.80;65.90;;;;;;493534;240;2182;-43
2021/08/26 11:59:16;;;;;;;;;;;20.80;65.90;;;;;;493534;240;1035;-43
2021/08/26 12:01:18;;;;;;;;;;;20.80;65.90;;;;;;493586;240;1281;-43